Terminal Aerodrome Forecast
Issued by NWS

Home | Current Version | Previous Version | Graphics & Text | Print | Product List | Glossary On
Versions: 1 2 3 4 5 6 7 8 9 10 11 12 13
000
FTUS43 KIWX 222200 AAA
TAFSBN
TAF AMD
KSBN 222224Z 2222/2318 36010KT P6SM SCT250
     FM222300 08003KT P6SM SCT250
     FM231500 19008KT P6SM BKN250=

USA.gov is the U.S. government's official web portal to all federal, state and local government web resources and services.